Accueil
METAR-TAF:

METAR-TAF

Aéroports :

Paderborn-Lippstadt, Allemagne

latitude: 51-37N, longitude: 008-37E, altitude: 213 m

Observation

Le bulletin a été fait il y a 32 minutes, à 09:50 UTC
Vent 8 kt de est
Température 0°C
Humidité 69%
Pression 1024 hPa
Visibilité 10 km ou plus
Quelques nuages à une hauteur de 3000 ft

METAR: EDLP 220950Z 08008KT 9999 FEW030 00/M05 Q1024

Heure: 11:22 (10:22 UTC)

Prévision

Le bulletin a été fait il y a 5 heures et 22 minutes, à 05:00 UTC
Prévision valable du 22 à 06 UTC au 23 à 06 UTC
Vent 6 kt de est
Visibilité 10 km ou plus
pas de nuages en-dessous de 1500 mètres et pas de cumulonimbus.
Evoluant progressivement
du 22 à 08 UTC au 22 à 11 UTC
Vent 11 kt de est
Evoluant progressivement
du 22 à 17 UTC au 22 à 20 UTC
Vent 6 kt de est

TAF: EDLP 220500Z 2206/2306 08006KT CAVOK BECMG 2208/2211 08011KT BECMG 2217/2220 09006KT

Observations et prévisions météorologiques de plus de 4000 aéroports (messages METAR et TAF).

Les stations disponibles sont représentées par des disques jaunes et rouges sur la carte.

Passer la souris dessus pour voir le nom de la station.

Cliquer dessus pour voir les observations et prévisions météorologiques.

Pour changer de carte: cliquez sur les boutons verts avec une croix noire pour zoomer, sur le bouton vert avec un tiret pour effectuer un zoom arrière, ou sur les flèches vertes pour les cartes adjacentes.


METAR-TAF: